<?xml version="1.0" encoding="utf-8"?>
<gpx xmlns:xsi="http://www.w3.org/2001/XMLSchema-instance" xmlns:xsd="http://www.w3.org/2001/XMLSchema" version="1.1" creator="Shapelink.com" xmlns="http://www.topografix.com/GPX/1/1" xmlns:gpxtpx="http://www.garmin.com/xmlschemas/TrackPointExtension/v1">
  <metadata>
    <name>Övrigt 1.10 km, 2020-09-01</name>
    <desc></desc>
    <author><name>Marian Moron</name></author> 
    <time>2020-09-01T20:10:01Z</time>
  </metadata>
  <trk>
    <name>Övrigt 1.10 km, 2020-09-01</name>
    <trkseg>
      <trkpt lat="51.229908183417" lon="4.45812557707">
        <ele>6.4</ele>
        <time>2020-09-01T20:10:01Z</time>
      </trkpt>
      <trkpt lat="51.229911200901" lon="4.458692864062">
        <ele>0</ele>
        <time>2020-09-01T20:10:31Z</time>
      </trkpt>
      <trkpt lat="51.229950092917" lon="4.458796464346">
        <ele>0</ele>
        <time>2020-09-01T20:10:39Z</time>
      </trkpt>
      <trkpt lat="51.230018489221" lon="4.45882211296">
        <ele>0</ele>
        <time>2020-09-01T20:10:44Z</time>
      </trkpt>
      <trkpt lat="51.230371786306" lon="4.459005173656">
        <ele>0</ele>
        <time>2020-09-01T20:11:28Z</time>
      </trkpt>
      <trkpt lat="51.23037228922" lon="4.45908195186">
        <ele>0</ele>
        <time>2020-09-01T20:11:33Z</time>
      </trkpt>
      <trkpt lat="51.230470692726" lon="4.459592493389">
        <ele>0</ele>
        <time>2020-09-01T20:12:41Z</time>
      </trkpt>
      <trkpt lat="51.230543615256" lon="4.460000272824">
        <ele>0</ele>
        <time>2020-09-01T20:13:25Z</time>
      </trkpt>
      <trkpt lat="51.230517631366" lon="4.460296656808">
        <ele>0</ele>
        <time>2020-09-01T20:14:11Z</time>
      </trkpt>
      <trkpt lat="51.230350077185" lon="4.460646182038">
        <ele>0.4</ele>
        <time>2020-09-01T20:15:52Z</time>
      </trkpt>
      <trkpt lat="51.230151929069" lon="4.460697730723">
        <ele>0</ele>
        <time>2020-09-01T20:16:15Z</time>
      </trkpt>
      <trkpt lat="51.230065427861" lon="4.460786914139">
        <ele>0</ele>
        <time>2020-09-01T20:16:31Z</time>
      </trkpt>
      <trkpt lat="51.22988110988" lon="4.460866626008">
        <ele>0</ele>
        <time>2020-09-01T20:16:46Z</time>
      </trkpt>
      <trkpt lat="51.229715399717" lon="4.460888838043">
        <ele>0</ele>
        <time>2020-09-01T20:17:14Z</time>
      </trkpt>
      <trkpt lat="51.229541726749" lon="4.460939716176">
        <ele>0</ele>
        <time>2020-09-01T20:17:36Z</time>
      </trkpt>
      <trkpt lat="51.229549941011" lon="4.461029989239">
        <ele>0</ele>
        <time>2020-09-01T20:17:46Z</time>
      </trkpt>
      <trkpt lat="51.229869961953" lon="4.461582859363">
        <ele>0</ele>
        <time>2020-09-01T20:18:23Z</time>
      </trkpt>
      <trkpt lat="51.230023769818" lon="4.461973288265">
        <ele>5</ele>
        <time>2020-09-01T20:19:05Z</time>
      </trkpt>
      <trkpt lat="51.229790920636" lon="4.46181277488">
        <ele>0.4</ele>
        <time>2020-09-01T20:20:08Z</time>
      </trkpt>
      <trkpt lat="51.229703916514" lon="4.461810427948">
        <ele>0.4</ele>
        <time>2020-09-01T20:20:23Z</time>
      </trkpt>
      <trkpt lat="51.22923905634" lon="4.461878908071">
        <ele>9.2</ele>
        <time>2020-09-01T20:21:32Z</time>
      </trkpt>
      <trkpt lat="51.228805041558" lon="4.461901958296">
        <ele>0</ele>
        <time>2020-09-01T20:23:23Z</time>
      </trkpt>
      <trkpt lat="51.228569091073" lon="4.461811852871">
        <ele>0</ele>
        <time>2020-09-01T20:23:48Z</time>
      </trkpt>
      <trkpt lat="51.228515111637" lon="4.461152784074">
        <ele>16.4</ele>
        <time>2020-09-01T20:25:01Z</time>
      </trkpt>
      <trkpt lat="51.228335571339" lon="4.460796720962">
        <ele>0.8</ele>
        <time>2020-09-01T20:25:33Z</time>
      </trkpt>
      <trkpt lat="51.228140775983" lon="4.460547527075">
        <ele>0</ele>
        <time>2020-09-01T20:26:31Z</time>
      </trkpt>
      <trkpt lat="51.228088389108" lon="4.460410147734">
        <ele>0</ele>
        <time>2020-09-01T20:26:44Z</time>
      </trkpt>
      <trkpt lat="51.228238844213" lon="4.460228931056">
        <ele>6.2</ele>
        <time>2020-09-01T20:27:04Z</time>
      </trkpt>
      <trkpt lat="51.228327692353" lon="4.460134467043">
        <ele>7.6</ele>
        <time>2020-09-01T20:27:15Z</time>
      </trkpt>
      <trkpt lat="51.228493737792" lon="4.459711013455">
        <ele>22.2</ele>
        <time>2020-09-01T20:27:54Z</time>
      </trkpt>
      <trkpt lat="51.228578478801" lon="4.459277333949">
        <ele>22.8</ele>
        <time>2020-09-01T20:28:37Z</time>
      </trkpt>
      <trkpt lat="51.22858359176" lon="4.459078012367">
        <ele>15.8</ele>
        <time>2020-09-01T20:28:53Z</time>
      </trkpt>
      <trkpt lat="51.228529277048" lon="4.458597980954">
        <ele>0</ele>
        <time>2020-09-01T20:29:38Z</time>
      </trkpt>
      <trkpt lat="51.228677636678" lon="4.458172012796">
        <ele>0</ele>
        <time>2020-09-01T20:30:19Z</time>
      </trkpt>
      <trkpt lat="51.229091031986" lon="4.45808366757">
        <ele>7</ele>
        <time>2020-09-01T20:30:59Z</time>
      </trkpt>
      <trkpt lat="51.229532674297" lon="4.457917119217">
        <ele>12.4</ele>
        <time>2020-09-01T20:31:35Z</time>
      </trkpt>
      <trkpt lat="51.229750268421" lon="4.457926590764">
        <ele>14.2</ele>
        <time>2020-09-01T20:32:10Z</time>
      </trkpt>
      <trkpt lat="51.229703748876" lon="4.457848052361">
        <ele>12.8</ele>
        <time>2020-09-01T20:33:07Z</time>
      </trkpt>
    </trkseg>
  </trk>
</gpx>